createdAt,value
2022-09-23T00:01:07.670Z,0.80
2022-09-23T00:03:36.056Z,1.03
2022-09-23T00:06:08.307Z,1.33
2022-09-23T00:08:35.154Z,1.07
2022-09-23T00:11:10.001Z,1.37
2022-09-23T00:13:37.982Z,0.77
2022-09-23T00:16:08.998Z,0.73
2022-09-23T00:18:35.801Z,0.90
2022-09-23T00:21:06.348Z,1.13
2022-09-23T00:23:33.121Z,0.80
2022-09-23T00:26:01.316Z,1.23
2022-09-23T00:28:27.778Z,0.93
2022-09-23T00:30:54.484Z,0.90
2022-09-23T00:33:21.177Z,0.87
2022-09-23T00:35:47.804Z,0.70
2022-09-23T00:38:14.399Z,0.50
2022-09-23T00:40:45.998Z,0.90
2022-09-23T00:43:13.804Z,1.17
2022-09-23T00:45:42.334Z,0.83
2022-09-23T00:48:15.029Z,0.70
2022-09-23T00:50:43.942Z,0.67
2022-09-23T00:53:16.207Z,0.70
2022-09-23T00:55:48.756Z,1.27
2022-09-23T00:58:18.378Z,1.13
2022-09-23T01:00:46.373Z,0.63
2022-09-23T01:03:13.630Z,1.57
2022-09-23T01:05:40.401Z,0.73
2022-09-23T01:08:09.175Z,0.73
2022-09-23T01:10:44.575Z,0.97
2022-09-23T01:13:28.782Z,0.87
2022-09-23T01:16:05.607Z,1.00
2022-09-23T01:19:01.192Z,0.67
2022-09-23T01:21:39.070Z,0.90
2022-09-23T01:24:30.628Z,1.03
2022-09-23T01:27:17.540Z,1.57
2022-09-23T01:29:56.014Z,1.03
2022-09-23T01:32:59.813Z,1.53
2022-09-23T01:35:46.522Z,1.43
2022-09-23T01:38:25.361Z,1.37
2022-09-23T01:41:01.246Z,0.97
2022-09-23T01:43:35.924Z,0.80
2022-09-23T01:46:09.264Z,0.87
2022-09-23T01:48:40.822Z,1.87
2022-09-23T01:51:12.743Z,0.63
2022-09-23T01:53:41.346Z,1.17
2022-09-23T01:56:18.021Z,1.60
2022-09-23T01:58:50.304Z,1.20
2022-09-23T02:01:21.468Z,1.13
2022-09-23T02:03:59.233Z,0.70
2022-09-23T02:06:30.298Z,1.00
2022-09-23T02:09:02.862Z,1.03
2022-09-23T02:11:32.488Z,0.93
2022-09-23T02:14:02.735Z,1.57
2022-09-23T02:16:40.935Z,0.90
2022-09-23T02:19:12.405Z,0.70
2022-09-23T02:21:42.740Z,0.90
2022-09-23T02:24:13.547Z,0.97
2022-09-23T02:27:06.283Z,1.10
2022-09-23T02:29:49.297Z,0.80
2022-09-23T02:32:20.316Z,1.47
2022-09-23T02:34:58.715Z,1.60
2022-09-23T02:37:37.192Z,1.47
2022-09-23T02:40:36.356Z,0.70
2022-09-23T02:43:14.333Z,1.03
2022-09-23T02:45:40.849Z,1.00
2022-09-23T02:48:21.755Z,0.73
2022-09-23T02:50:48.667Z,1.00
2022-09-23T02:53:17.962Z,0.70
2022-09-23T02:55:44.609Z,1.23
2022-09-23T02:58:13.330Z,1.57
2022-09-23T03:00:59.902Z,1.23
2022-09-23T03:03:47.386Z,0.80
2022-09-23T03:06:27.865Z,1.53
2022-09-23T03:09:00.214Z,1.30
2022-09-23T03:11:26.903Z,1.30
2022-09-23T03:14:17.557Z,1.00
2022-09-23T03:17:26.387Z,0.70
2022-09-23T03:20:01.253Z,1.30
2022-09-23T03:22:33.788Z,1.10
2022-09-23T03:25:08.477Z,1.07
2022-09-23T03:27:36.087Z,1.03
2022-09-23T03:30:04.415Z,0.77
2022-09-23T03:32:32.002Z,1.43
2022-09-23T03:35:00.613Z,0.63
2022-09-23T03:37:32.846Z,1.37
2022-09-23T03:40:07.510Z,1.23
2022-09-23T03:42:34.276Z,1.30
2022-09-23T03:45:01.324Z,2.40
2022-09-23T03:47:28.750Z,1.47
2022-09-23T03:49:56.711Z,0.73
2022-09-23T03:52:25.270Z,0.93
2022-09-23T03:54:52.208Z,1.73
2022-09-23T03:57:21.957Z,0.73
2022-09-23T03:59:50.440Z,1.30
2022-09-23T04:02:19.624Z,1.70
2022-09-23T04:04:46.070Z,0.80
2022-09-23T04:07:13.322Z,0.83
2022-09-23T04:09:39.784Z,0.77
2022-09-23T04:12:07.107Z,1.10
2022-09-23T04:14:34.968Z,1.03
2022-09-23T04:17:01.301Z,1.33
2022-09-23T04:19:27.645Z,1.03
2022-09-23T04:21:54.050Z,1.77
2022-09-23T04:24:20.530Z,1.00
2022-09-23T04:26:50.346Z,2.60
2022-09-23T04:29:16.757Z,1.00
2022-09-23T04:31:43.630Z,0.90
2022-09-23T04:34:10.448Z,1.07
2022-09-23T04:36:36.743Z,1.20
2022-09-23T04:39:04.412Z,1.23
2022-09-23T04:41:30.845Z,1.20
2022-09-23T04:43:57.556Z,0.60
2022-09-23T04:46:24.337Z,1.53
2022-09-23T04:48:50.759Z,1.17
2022-09-23T04:51:19.969Z,1.43
2022-09-23T04:53:48.117Z,1.23
2022-09-23T04:56:17.520Z,1.10
2022-09-23T04:58:45.477Z,1.30
2022-09-23T05:01:14.406Z,0.83
2022-09-23T05:03:41.156Z,2.20
2022-09-23T05:06:08.018Z,1.13
2022-09-23T05:08:35.133Z,0.70
2022-09-23T05:11:04.798Z,1.13
2022-09-23T05:13:32.563Z,1.17
2022-09-23T05:16:01.278Z,0.60
2022-09-23T05:18:30.970Z,0.90
2022-09-23T05:20:57.550Z,1.13
2022-09-23T05:23:27.278Z,1.47
2022-09-23T05:26:05.597Z,1.00
2022-09-23T05:28:32.904Z,1.03
2022-09-23T05:31:08.113Z,1.20
2022-09-23T05:33:35.876Z,1.43
2022-09-23T05:36:03.635Z,1.53
2022-09-23T05:38:30.732Z,1.20
2022-09-23T05:41:04.412Z,1.37
2022-09-23T05:43:31.595Z,1.00
2022-09-23T05:46:07.216Z,1.43
2022-09-23T05:48:35.292Z,0.80
2022-09-23T05:51:01.870Z,1.93
2022-09-23T05:53:30.066Z,1.07
2022-09-23T05:55:57.474Z,1.37
2022-09-23T05:58:24.745Z,1.33
2022-09-23T06:00:51.395Z,1.53
2022-09-23T06:03:21.339Z,1.40
2022-09-23T06:05:48.433Z,1.13
2022-09-23T06:08:14.958Z,1.03
2022-09-23T06:10:43.274Z,1.33
2022-09-23T06:13:10.130Z,1.80
2022-09-23T06:15:37.275Z,1.60
2022-09-23T06:18:06.472Z,1.27
2022-09-23T06:20:34.006Z,1.23
2022-09-23T06:23:08.634Z,2.17
2022-09-23T06:25:40.749Z,1.42
2022-09-23T06:28:10.746Z,1.52
2022-09-23T06:30:37.221Z,1.35
2022-09-23T06:33:03.598Z,1.10
2022-09-23T06:35:32.486Z,1.58
2022-09-23T06:37:59.278Z,1.15
2022-09-23T06:40:25.689Z,1.50
2022-09-23T06:42:59.591Z,1.42
2022-09-23T06:45:27.195Z,1.90
2022-09-23T06:47:56.310Z,1.30
2022-09-23T06:50:26.553Z,2.45
2022-09-23T06:52:56.682Z,1.30
2022-09-23T06:55:24.546Z,1.55
2022-09-23T06:57:51.147Z,1.75
2022-09-23T07:00:18.191Z,1.42
2022-09-23T07:02:44.880Z,1.60
2022-09-23T07:05:11.462Z,1.65
2022-09-23T07:07:38.297Z,1.30
2022-09-23T07:10:06.308Z,1.77
2022-09-23T07:12:33.350Z,1.63
2022-09-23T07:14:59.724Z,2.30
2022-09-23T07:17:26.374Z,1.63
2022-09-23T07:19:54.918Z,1.45
2022-09-23T07:22:22.480Z,1.30
2022-09-23T07:24:48.889Z,1.85
2022-09-23T07:27:19.985Z,1.83
2022-09-23T07:29:50.557Z,1.88
2022-09-23T07:32:17.202Z,1.55
2022-09-23T07:34:44.373Z,1.30
2022-09-23T07:37:11.209Z,1.85
2022-09-23T07:39:37.695Z,1.52
2022-09-23T07:42:05.266Z,1.30
2022-09-23T07:44:32.787Z,1.80
2022-09-23T07:47:00.309Z,1.48
2022-09-23T07:49:27.756Z,2.63
2022-09-23T07:51:54.440Z,1.92
2022-09-23T07:54:21.804Z,1.35
2022-09-23T07:56:48.195Z,1.73
2022-09-23T07:59:18.207Z,1.40
2022-09-23T08:01:48.370Z,1.23
2022-09-23T08:04:28.154Z,1.80
2022-09-23T08:06:58.416Z,1.85
2022-09-23T08:09:27.935Z,1.30
2022-09-23T08:11:55.208Z,1.25
2022-09-23T08:14:22.430Z,1.30
2022-09-23T08:16:49.467Z,1.83
2022-09-23T08:19:16.474Z,1.60
2022-09-23T08:21:43.168Z,1.50
2022-09-23T08:24:13.185Z,2.08
2022-09-23T08:26:39.671Z,1.50
2022-09-23T08:29:06.826Z,1.45
2022-09-23T08:31:33.276Z,1.48
2022-09-23T08:33:59.940Z,1.25
2022-09-23T08:36:26.740Z,0.93
2022-09-23T08:38:53.350Z,1.00
2022-09-23T08:41:29.415Z,1.55
2022-09-23T08:43:58.333Z,0.90
2022-09-23T08:46:28.814Z,1.20
2022-09-23T08:48:55.830Z,1.05
2022-09-23T08:51:26.363Z,1.52
2022-09-23T08:53:52.917Z,1.20
2022-09-23T08:56:22.592Z,1.45
2022-09-23T08:59:23.127Z,0.65
2022-09-23T09:01:53.615Z,1.00
2022-09-23T09:04:27.873Z,1.10
2022-09-23T09:07:31.839Z,1.30
2022-09-23T09:10:09.763Z,0.95
2022-09-23T09:12:45.750Z,1.30
2022-09-23T09:15:13.081Z,0.90
2022-09-23T09:17:48.414Z,1.23
2022-09-23T09:20:14.873Z,1.08
2022-09-23T09:22:57.774Z,1.20
2022-09-23T09:25:34.285Z,1.20
2022-09-23T09:28:01.330Z,0.60
2022-09-23T09:30:28.292Z,0.68
2022-09-23T09:33:01.649Z,1.00
2022-09-23T09:35:35.065Z,0.75
2022-09-23T09:38:01.949Z,0.88
2022-09-23T09:40:28.519Z,0.77
2022-09-23T09:42:55.070Z,0.77
2022-09-23T09:45:57.493Z,0.85
2022-09-23T09:48:33.121Z,0.60
2022-09-23T09:51:18.722Z,0.88
2022-09-23T09:53:45.235Z,0.50
2022-09-23T09:56:14.975Z,0.35
2022-09-23T09:59:04.813Z,0.22
2022-09-23T10:01:33.260Z,0.47
2022-09-23T10:04:33.726Z,0.40
2022-09-23T10:07:28.170Z,0.20
2022-09-23T10:09:58.315Z,0.43
2022-09-23T10:12:43.474Z,0.60
2022-09-23T10:15:26.975Z,0.90
2022-09-23T10:17:54.317Z,0.57
2022-09-23T10:20:20.745Z,0.50
2022-09-23T10:22:47.602Z,0.32
2022-09-23T10:25:20.834Z,0.40
2022-09-23T10:27:47.326Z,0.80
2022-09-23T10:30:25.159Z,0.50
2022-09-23T10:32:54.887Z,0.57
2022-09-23T10:35:23.705Z,0.32
2022-09-23T10:37:52.585Z,0.50
2022-09-23T10:40:56.242Z,0.47
2022-09-23T10:44:09.219Z,0.40
2022-09-23T10:47:00.395Z,0.28
2022-09-23T10:49:45.097Z,0.40
2022-09-23T10:52:38.032Z,0.30
2022-09-23T10:55:15.302Z,0.40
2022-09-23T10:57:44.832Z,0.25
2022-09-23T11:00:22.315Z,0.40
2022-09-23T11:03:09.267Z,0.38
2022-09-23T11:06:00.739Z,0.30
2022-09-23T11:08:36.929Z,0.38
2022-09-23T11:11:46.042Z,0.38
2022-09-23T11:14:31.141Z,0.52
2022-09-23T11:16:58.161Z,0.38
2022-09-23T11:19:44.740Z,0.60
2022-09-23T11:22:24.632Z,0.40
2022-09-23T11:25:00.203Z,0.70
2022-09-23T11:27:57.126Z,0.43
2022-09-23T11:30:30.596Z,0.98
2022-09-23T11:33:04.507Z,0.32
2022-09-23T11:35:50.965Z,0.50
2022-09-23T11:38:31.777Z,0.52
2022-09-23T11:41:01.596Z,0.60
2022-09-23T11:43:33.475Z,0.52
2022-09-23T11:46:22.874Z,0.57
2022-09-23T11:48:56.346Z,0.75
2022-09-23T11:51:29.344Z,0.28
2022-09-23T11:54:20.740Z,0.35
2022-09-23T11:56:51.469Z,0.30
2022-09-23T12:03:06.617Z,0.30
2022-09-23T12:05:39.036Z,0.50
2022-09-23T12:08:25.456Z,0.40
2022-09-23T12:10:58.974Z,0.80
2022-09-23T12:13:32.059Z,0.60
2022-09-23T12:16:11.361Z,0.60
2022-09-23T12:18:54.397Z,0.60
2022-09-23T12:21:53.063Z,0.28
2022-09-23T12:24:46.753Z,0.40
2022-09-23T12:27:24.156Z,0.52
2022-09-23T12:30:01.493Z,0.50
2022-09-23T12:32:28.158Z,0.65
2022-09-23T12:34:55.336Z,0.60
2022-09-23T12:37:33.948Z,0.47
2022-09-23T12:40:09.819Z,0.60
2022-09-23T12:42:41.341Z,0.50
2022-09-23T12:45:31.960Z,0.63
2022-09-23T12:48:03.203Z,0.40
2022-09-23T12:50:52.474Z,0.70
2022-09-23T12:53:34.276Z,0.75
2022-09-23T12:56:14.627Z,0.50
2022-09-23T12:58:43.842Z,0.73
2022-09-23T13:01:19.256Z,0.70
2022-09-23T13:04:06.079Z,0.45
2022-09-23T13:07:03.485Z,0.55
2022-09-23T13:09:31.827Z,0.45
2022-09-23T13:12:03.076Z,0.40
2022-09-23T13:14:30.374Z,0.50
2022-09-23T13:16:58.425Z,0.90
2022-09-23T13:19:27.851Z,0.45
2022-09-23T13:21:54.221Z,0.60
2022-09-23T13:24:24.949Z,0.77
2022-09-23T13:27:02.652Z,0.50
2022-09-23T13:29:37.330Z,0.50
2022-09-23T13:32:05.908Z,0.85
2022-09-23T13:34:34.632Z,0.88
2022-09-23T13:37:22.862Z,0.60
2022-09-23T13:39:50.160Z,0.45
2022-09-23T13:42:27.126Z,0.60
2022-09-23T13:44:57.377Z,0.40
2022-09-23T13:47:25.856Z,0.32
2022-09-23T13:49:52.988Z,0.40
2022-09-23T13:52:26.383Z,0.40
2022-09-23T13:54:52.938Z,0.73
2022-09-23T13:57:31.071Z,0.47
2022-09-23T14:00:21.222Z,0.43
2022-09-23T14:02:47.763Z,0.52
2022-09-23T14:05:21.993Z,0.45
2022-09-23T14:07:50.229Z,0.50
2022-09-23T14:10:26.610Z,0.50
2022-09-23T14:12:54.662Z,0.98
2022-09-23T14:15:21.445Z,1.00
2022-09-23T14:18:06.224Z,0.50
2022-09-23T14:20:34.253Z,0.85
2022-09-23T14:23:10.887Z,0.47
2022-09-23T14:25:38.690Z,0.30
2022-09-23T14:28:05.184Z,0.55
2022-09-23T14:30:31.877Z,0.60
2022-09-23T14:32:59.209Z,0.65
2022-09-23T14:35:28.252Z,0.50
2022-09-23T14:38:16.912Z,0.40
2022-09-23T14:40:53.596Z,0.77
2022-09-23T14:43:25.701Z,0.57
2022-09-23T14:45:58.951Z,0.77
2022-09-23T14:48:30.986Z,0.93
2022-09-23T14:50:59.772Z,0.30
2022-09-23T14:53:43.048Z,0.73
2022-09-23T14:56:18.639Z,0.30
2022-09-23T14:58:56.825Z,0.45
2022-09-23T15:01:35.382Z,0.60
2022-09-23T15:04:13.513Z,0.50
2022-09-23T15:06:46.853Z,0.98
2022-09-23T15:09:20.125Z,0.50
2022-09-23T15:11:47.157Z,0.73
2022-09-23T15:14:36.770Z,0.60
2022-09-23T15:17:01.338Z,0.60
2022-09-23T15:19:28.293Z,0.50
2022-09-23T15:21:54.781Z,0.50
2022-09-23T15:24:40.849Z,1.00
2022-09-23T15:27:21.070Z,0.80
2022-09-23T15:29:47.432Z,0.93
2022-09-23T15:32:13.873Z,0.63
2022-09-23T15:34:40.338Z,0.63
2022-09-23T15:37:11.079Z,0.63
2022-09-23T15:39:37.469Z,0.68
2022-09-23T15:42:04.260Z,0.70
2022-09-23T15:44:30.745Z,0.73
2022-09-23T15:47:00.009Z,0.73
2022-09-23T15:49:36.664Z,0.70
2022-09-23T15:52:04.518Z,0.30
2022-09-23T15:54:32.414Z,0.60
2022-09-23T15:57:00.396Z,0.65
2022-09-23T15:59:28.584Z,0.60
2022-09-23T16:01:56.293Z,1.20
2022-09-23T16:04:23.672Z,0.70
2022-09-23T16:06:50.299Z,0.70
2022-09-23T16:09:16.939Z,0.70
2022-09-23T16:11:45.740Z,0.85
2022-09-23T16:14:14.721Z,1.05
2022-09-23T16:16:43.933Z,0.95
2022-09-23T16:19:12.327Z,0.77
2022-09-23T16:21:40.861Z,1.30
2022-09-23T16:24:15.020Z,1.10
2022-09-23T16:26:43.109Z,0.80
2022-09-23T16:29:11.379Z,1.15
2022-09-23T16:31:38.677Z,1.40
2022-09-23T16:34:05.638Z,1.23
2022-09-23T16:36:39.209Z,1.60
2022-09-23T16:39:07.656Z,1.38
2022-09-23T16:41:34.232Z,1.40
2022-09-23T16:44:02.209Z,1.00
2022-09-23T16:46:29.758Z,1.70
2022-09-23T16:48:57.573Z,1.67
2022-09-23T16:51:38.567Z,1.60
2022-09-23T16:54:10.151Z,1.42
2022-09-23T16:56:45.098Z,1.42
2022-09-23T16:59:13.030Z,1.35
2022-09-23T17:01:58.270Z,1.17
2022-09-23T17:04:24.763Z,1.00
2022-09-23T17:06:52.810Z,0.90
2022-09-23T17:09:24.749Z,0.75
2022-09-23T17:11:57.811Z,1.20
2022-09-23T17:14:24.684Z,1.02
2022-09-23T17:16:51.189Z,1.10
2022-09-23T17:19:17.781Z,1.42
2022-09-23T17:21:44.731Z,1.13
2022-09-23T17:24:11.511Z,1.98
2022-09-23T17:26:38.258Z,0.93
2022-09-23T17:29:05.580Z,1.30
2022-09-23T17:31:32.261Z,1.73
2022-09-23T17:33:58.765Z,1.50
2022-09-23T17:36:25.326Z,1.50
2022-09-23T17:38:54.462Z,2.08
2022-09-23T17:41:21.121Z,1.77
2022-09-23T17:43:47.658Z,1.33
2022-09-23T17:46:18.706Z,1.35
2022-09-23T17:48:45.574Z,2.03
2022-09-23T17:51:15.757Z,1.35
2022-09-23T17:53:45.083Z,0.85
2022-09-23T17:56:17.026Z,1.55
2022-09-23T17:58:44.627Z,2.55
2022-09-23T18:01:12.883Z,2.08
2022-09-23T18:03:39.859Z,1.58
2022-09-23T18:06:08.410Z,1.52
2022-09-23T18:08:34.858Z,1.70
2022-09-23T18:11:01.682Z,1.25
2022-09-23T18:13:28.390Z,1.42
2022-09-23T18:15:54.942Z,2.42
2022-09-23T18:18:21.436Z,2.38
2022-09-23T18:20:47.808Z,1.48
2022-09-23T18:23:14.435Z,1.77
2022-09-23T18:25:40.810Z,1.70
2022-09-23T18:28:07.266Z,1.55
2022-09-23T18:30:33.713Z,1.50
2022-09-23T18:33:00.352Z,1.97
2022-09-23T18:35:26.758Z,1.42
2022-09-23T18:37:53.180Z,1.20
2022-09-23T18:40:19.663Z,1.20
2022-09-23T18:42:46.175Z,1.57
2022-09-23T18:45:12.607Z,2.17
2022-09-23T18:47:57.463Z,1.08
2022-09-23T18:50:44.998Z,1.00
2022-09-23T18:53:11.457Z,1.45
2022-09-23T18:55:38.093Z,1.33
2022-09-23T18:58:07.301Z,2.20
2022-09-23T19:00:34.079Z,1.05
2022-09-23T19:03:00.658Z,1.38
2022-09-23T19:05:27.396Z,1.00
2022-09-23T19:07:53.806Z,0.90
2022-09-23T19:10:20.278Z,0.63
2022-09-23T19:12:46.706Z,1.00
2022-09-23T19:15:14.194Z,1.45
2022-09-23T19:17:40.619Z,1.20
2022-09-23T19:20:07.842Z,0.77
2022-09-23T19:22:34.532Z,1.03
2022-09-23T19:25:00.918Z,0.90
2022-09-23T19:27:27.380Z,1.27
2022-09-23T19:29:53.954Z,1.23
2022-09-23T19:32:21.109Z,1.57
2022-09-23T19:34:47.866Z,1.13
2022-09-23T19:37:14.522Z,1.53
2022-09-23T19:39:40.981Z,1.10
2022-09-23T19:42:07.678Z,1.15
2022-09-23T19:44:37.734Z,0.80
2022-09-23T19:47:04.431Z,1.38
2022-09-23T19:49:31.099Z,0.87
2022-09-23T19:51:57.571Z,1.50
2022-09-23T19:54:26.934Z,1.00
2022-09-23T19:56:53.331Z,0.97
2022-09-23T19:59:19.862Z,0.60
2022-09-23T20:01:47.956Z,1.07
2022-09-23T20:04:15.677Z,1.23
2022-09-23T20:06:42.435Z,1.53
2022-09-23T20:09:09.035Z,1.00
2022-09-23T20:11:35.612Z,0.87
2022-09-23T20:14:03.854Z,1.37
2022-09-23T20:16:33.297Z,1.10
2022-09-23T20:19:00.846Z,1.83
2022-09-23T20:21:29.205Z,1.37
2022-09-23T20:23:56.204Z,1.83
2022-09-23T20:26:41.438Z,0.77
2022-09-23T20:29:08.902Z,0.80
2022-09-23T20:31:35.555Z,0.87
2022-09-23T20:34:05.551Z,1.17
2022-09-23T20:36:33.325Z,1.07
2022-09-23T20:39:01.619Z,0.83
2022-09-23T20:41:29.755Z,1.13
2022-09-23T20:44:00.293Z,1.27
2022-09-23T20:46:28.555Z,1.43
2022-09-23T20:48:56.627Z,1.73
2022-09-23T20:51:24.111Z,2.00
2022-09-23T20:53:52.719Z,1.20
2022-09-23T20:56:23.102Z,1.37
2022-09-23T20:58:50.959Z,2.07
2022-09-23T21:01:18.163Z,1.47
2022-09-23T21:03:46.924Z,1.63
2022-09-23T21:06:15.050Z,1.60
2022-09-23T21:08:42.358Z,1.70
2022-09-23T21:11:16.808Z,1.83
2022-09-23T21:13:47.622Z,1.30
2022-09-23T21:16:18.107Z,1.70
2022-09-23T21:18:45.569Z,1.20
2022-09-23T21:21:14.068Z,1.03
2022-09-23T21:23:41.984Z,1.47
2022-09-23T21:26:11.119Z,2.87
2022-09-23T21:28:44.621Z,2.13
2022-09-23T21:31:14.872Z,1.67
2022-09-23T21:33:41.421Z,1.60
2022-09-23T21:36:07.922Z,1.00
2022-09-23T21:38:37.951Z,1.87
2022-09-23T21:41:06.693Z,1.90
2022-09-23T21:43:35.600Z,1.33
2022-09-23T21:46:03.629Z,1.60
2022-09-23T21:48:31.519Z,1.73
2022-09-23T21:51:00.084Z,1.47
2022-09-23T21:53:29.474Z,1.40
2022-09-23T21:56:03.850Z,1.63
2022-09-23T21:58:34.657Z,1.17
2022-09-23T22:01:02.248Z,1.77
2022-09-23T22:03:28.731Z,1.43
2022-09-23T22:06:02.974Z,1.60
2022-09-23T22:08:36.852Z,1.87
2022-09-23T22:11:08.814Z,1.47
2022-09-23T22:13:35.253Z,1.70
2022-09-23T22:16:05.204Z,1.27
2022-09-23T22:18:31.986Z,2.03
2022-09-23T22:20:58.880Z,1.50
2022-09-23T22:23:25.516Z,1.60
2022-09-23T22:26:02.784Z,0.87
2022-09-23T22:28:51.098Z,1.17
2022-09-23T22:31:36.335Z,1.23
2022-09-23T22:34:02.789Z,1.20
2022-09-23T22:36:29.200Z,1.67
2022-09-23T22:38:59.060Z,1.23
2022-09-23T22:41:26.276Z,1.60
2022-09-23T22:43:53.829Z,1.30
2022-09-23T22:46:22.201Z,1.37
2022-09-23T22:48:50.442Z,1.37
2022-09-23T22:51:16.875Z,1.10
2022-09-23T22:53:43.409Z,1.30
2022-09-23T22:56:09.813Z,0.93
2022-09-23T22:58:36.525Z,1.13
2022-09-23T23:01:03.148Z,1.58
2022-09-23T23:03:30.498Z,1.03
2022-09-23T23:06:00.517Z,0.80
2022-09-23T23:08:28.180Z,1.47
2022-09-23T23:10:56.139Z,1.87
2022-09-23T23:13:23.617Z,1.63
2022-09-23T23:15:50.744Z,1.20
2022-09-23T23:18:18.070Z,1.80
2022-09-23T23:20:46.038Z,1.70
2022-09-23T23:23:12.605Z,1.07
2022-09-23T23:25:39.505Z,2.00
2022-09-23T23:28:06.814Z,1.93
2022-09-23T23:30:35.085Z,1.33
2022-09-23T23:33:01.742Z,1.70
2022-09-23T23:35:28.261Z,1.47
2022-09-23T23:37:54.692Z,0.90
2022-09-23T23:40:22.742Z,1.50
2022-09-23T23:42:49.469Z,0.90
2022-09-23T23:45:16.659Z,1.48
2022-09-23T23:47:43.906Z,1.27
2022-09-23T23:50:10.720Z,1.30
2022-09-23T23:52:37.199Z,1.30
2022-09-23T23:55:04.038Z,1.33
2022-09-23T23:57:30.558Z,1.27
2022-09-23T23:59:57.038Z,1.23
